Time;durP1;ratioP1;P1;durP2;ratioP2;P2;SDS_P1;SDS_P2;PMS_P1;PMS_P2;Temp;Humidity;BMP_temperature;BMP_pressure;BME280_temperature;BME280_humidity;BME280_pressure;Samples;Min_cycle;Max_cycle;Signal;HPM_P1;HPM_P2
2023/09/03 00:00:38;;;;;;;1.50;0.90;;;18.00;98.20;;;;;;4943626;28;20468;-80
2023/09/03 00:03:07;;;;;;;1.50;1.00;;;18.00;98.20;;;;;;4934783;28;20483;-80
2023/09/03 00:05:34;;;;;;;1.50;1.00;;;18.00;98.20;;;;;;4949157;28;20469;-81
2023/09/03 00:08:01;;;;;;;1.50;0.90;;;18.00;98.20;;;;;;4953397;28;20490;-82
2023/09/03 00:10:29;;;;;;;1.50;0.90;;;17.90;98.20;;;;;;4951282;28;20474;-81
2023/09/03 00:12:56;;;;;;;1.50;1.00;;;17.90;98.20;;;;;;4954547;28;21031;-82
2023/09/03 00:15:25;;;;;;;1.50;1.10;;;17.90;98.20;;;;;;4948107;28;20466;-80
2023/09/03 00:17:51;;;;;;;1.50;0.90;;;17.90;98.20;;;;;;4951209;28;20474;-81
2023/09/03 00:20:19;;;;;;;1.50;0.90;;;17.80;98.20;;;;;;4939492;28;20539;-80
2023/09/03 00:22:46;;;;;;;1.50;0.97;;;17.80;98.20;;;;;;4937498;28;20914;-81
2023/09/03 00:25:13;;;;;;;1.50;1.00;;;17.80;98.20;;;;;;4944968;28;20478;-80
2023/09/03 00:27:40;;;;;;;1.50;0.97;;;17.80;98.20;;;;;;4936210;28;20494;-81
2023/09/03 00:30:08;;;;;;;1.50;1.00;;;17.70;98.20;;;;;;4941932;28;20463;-82
2023/09/03 00:32:34;;;;;;;1.50;0.90;;;17.70;98.20;;;;;;4937806;28;20475;-80
2023/09/03 00:35:01;;;;;;;1.50;1.00;;;17.70;98.20;;;;;;4942255;28;20493;-80
2023/09/03 00:37:29;;;;;;;1.50;1.00;;;17.60;98.20;;;;;;4946094;28;20478;-81
2023/09/03 00:39:56;;;;;;;1.50;0.90;;;17.60;98.20;;;;;;4943740;28;20471;-80
2023/09/03 00:42:22;;;;;;;1.50;0.90;;;17.60;98.20;;;;;;4949629;28;20663;-82
2023/09/03 00:44:48;;;;;;;1.50;0.90;;;17.60;98.20;;;;;;4947005;28;20482;-81
2023/09/03 00:47:17;;;;;;;1.50;1.00;;;17.50;98.20;;;;;;4946878;28;20863;-81
2023/09/03 00:49:45;;;;;;;1.53;1.00;;;17.50;98.20;;;;;;4952587;28;20215;-81
2023/09/03 00:52:12;;;;;;;1.50;1.00;;;17.50;98.20;;;;;;4933136;28;20486;-80
2023/09/03 00:54:41;;;;;;;1.50;1.00;;;17.40;98.20;;;;;;4939656;28;20491;-81
2023/09/03 00:57:08;;;;;;;1.53;1.00;;;17.40;98.20;;;;;;4932927;28;20494;-80
2023/09/03 00:59:35;;;;;;;1.50;1.00;;;17.40;98.20;;;;;;4944698;28;20463;-80
2023/09/03 01:02:02;;;;;;;1.50;0.97;;;17.40;98.20;;;;;;4941775;28;20485;-80
2023/09/03 01:04:29;;;;;;;1.57;1.00;;;17.30;98.20;;;;;;4944272;28;20487;-80
2023/09/03 01:06:56;;;;;;;1.50;1.00;;;17.30;98.20;;;;;;4934186;28;20490;-80
2023/09/03 01:09:23;;;;;;;1.50;1.00;;;17.30;98.20;;;;;;4941936;28;20471;-81
2023/09/03 01:12:00;;;;;;;1.50;1.00;;;17.30;98.20;;;;;;4938387;28;20492;-80
2023/09/03 01:14:36;;;;;;;1.50;1.00;;;17.30;98.20;;;;;;4944195;28;21250;-80
2023/09/03 01:17:10;;;;;;;1.53;1.00;;;17.20;98.20;;;;;;4950910;28;20499;-80
2023/09/03 01:19:53;;;;;;;1.53;1.00;;;17.20;98.20;;;;;;4951124;28;20469;-82
2023/09/03 01:22:32;;;;;;;1.57;1.00;;;17.20;98.20;;;;;;4954186;28;20488;-80
2023/09/03 01:25:10;;;;;;;1.53;1.00;;;17.20;98.20;;;;;;4954760;28;20527;-82
2023/09/03 01:27:51;;;;;;;1.50;0.90;;;17.20;98.20;;;;;;4946841;28;20874;-81
2023/09/03 01:30:20;;;;;;;1.53;1.00;;;17.10;98.20;;;;;;4948770;28;20477;-81
2023/09/03 01:32:49;;;;;;;1.50;1.00;;;17.10;98.20;;;;;;4957453;28;20481;-80
2023/09/03 01:35:18;;;;;;;1.50;1.00;;;17.10;98.20;;;;;;4950396;28;20473;-81
2023/09/03 01:37:45;;;;;;;1.50;1.00;;;17.10;98.20;;;;;;4958183;28;20492;-79
2023/09/03 01:40:12;;;;;;;1.53;1.00;;;17.10;98.20;;;;;;4951725;28;20476;-81
2023/09/03 01:42:39;;;;;;;1.60;1.10;;;17.00;98.20;;;;;;4956014;28;20488;-80
2023/09/03 01:45:07;;;;;;;1.57;1.00;;;17.00;98.20;;;;;;4954363;28;20565;-79
2023/09/03 01:47:42;;;;;;;1.57;1.00;;;17.00;98.20;;;;;;4946422;28;20513;-80
2023/09/03 01:50:17;;;;;;;1.50;1.03;;;17.00;98.20;;;;;;4958279;28;20501;-80
2023/09/03 01:52:50;;;;;;;1.57;1.00;;;17.00;98.20;;;;;;4962028;28;20481;-81
2023/09/03 01:55:19;;;;;;;1.57;1.00;;;17.00;98.20;;;;;;4949756;28;20561;-80
2023/09/03 01:57:49;;;;;;;1.50;0.93;;;17.00;98.20;;;;;;4957564;28;20537;-82
2023/09/03 02:00:18;;;;;;;1.50;1.10;;;17.00;98.20;;;;;;4943240;28;20506;-81
2023/09/03 02:02:48;;;;;;;1.50;1.10;;;17.00;98.20;;;;;;4948498;28;20904;-80
2023/09/03 02:05:15;;;;;;;1.53;1.00;;;17.00;98.20;;;;;;4954401;28;20525;-80
2023/09/03 02:07:42;;;;;;;1.50;0.90;;;17.00;98.20;;;;;;4949483;28;21158;-82
2023/09/03 02:10:10;;;;;;;1.53;1.00;;;17.00;98.20;;;;;;4950089;28;21046;-81
2023/09/03 02:12:37;;;;;;;1.50;1.00;;;17.00;98.20;;;;;;4954660;28;20481;-81
2023/09/03 02:15:04;;;;;;;1.53;1.00;;;17.00;98.20;;;;;;4952412;28;20483;-81
2023/09/03 02:17:31;;;;;;;1.53;1.00;;;16.90;98.20;;;;;;4941460;28;20482;-81
2023/09/03 02:19:59;;;;;;;1.57;1.00;;;17.00;98.20;;;;;;4953032;28;20463;-81
2023/09/03 02:22:26;;;;;;;1.50;0.90;;;16.90;98.20;;;;;;4958899;28;20528;-81
2023/09/03 02:24:52;;;;;;;1.50;1.00;;;16.90;98.20;;;;;;4955979;28;20869;-82
2023/09/03 02:27:19;;;;;;;1.50;0.97;;;16.90;98.20;;;;;;4950216;28;20507;-81
2023/09/03 02:29:46;;;;;;;1.50;1.00;;;16.90;98.20;;;;;;4956280;28;20490;-81
2023/09/03 02:32:13;;;;;;;1.57;1.00;;;16.90;98.20;;;;;;4944020;28;20486;-81
2023/09/03 02:34:40;;;;;;;1.60;1.10;;;16.90;98.20;;;;;;4952258;28;20566;-81
2023/09/03 02:37:10;;;;;;;1.50;1.00;;;16.90;98.20;;;;;;4949952;28;20542;-81
2023/09/03 02:39:37;;;;;;;1.53;0.90;;;16.90;98.20;;;;;;4950308;28;21022;-81
2023/09/03 02:42:04;;;;;;;1.50;1.00;;;16.90;98.20;;;;;;4946532;28;20541;-80
2023/09/03 02:44:31;;;;;;;1.57;1.00;;;16.90;98.20;;;;;;4948854;28;20865;-81
2023/09/03 02:46:58;;;;;;;1.50;0.90;;;16.80;98.20;;;;;;4939575;28;20483;-80
2023/09/03 02:49:25;;;;;;;1.53;1.00;;;16.80;98.20;;;;;;4944231;28;20471;-81
2023/09/03 02:51:51;;;;;;;1.53;1.00;;;16.80;98.20;;;;;;4944325;28;21010;-81
2023/09/03 02:54:19;;;;;;;1.50;1.00;;;16.80;98.20;;;;;;4957396;28;20491;-81
2023/09/03 02:56:46;;;;;;;1.50;1.00;;;16.80;98.20;;;;;;4942783;28;20482;-81
2023/09/03 02:59:13;;;;;;;1.50;0.90;;;16.80;98.20;;;;;;4955287;28;20861;-80
2023/09/03 03:01:42;;;;;;;1.50;1.00;;;16.80;98.20;;;;;;4945042;28;20478;-80
2023/09/03 03:04:08;;;;;;;1.50;1.07;;;16.80;98.20;;;;;;4957130;28;20586;-80
2023/09/03 03:06:35;;;;;;;1.50;1.00;;;16.70;98.20;;;;;;4933167;28;20479;-81
2023/09/03 03:09:04;;;;;;;1.50;1.00;;;16.70;98.20;;;;;;4951022;28;20485;-80
2023/09/03 03:11:32;;;;;;;1.57;1.00;;;16.70;98.20;;;;;;4944494;28;20553;-81
2023/09/03 03:13:59;;;;;;;1.57;1.00;;;16.70;98.20;;;;;;4956562;28;20579;-80
2023/09/03 03:16:26;;;;;;;1.50;1.10;;;16.70;98.20;;;;;;4936391;28;20906;-80
2023/09/03 03:18:53;;;;;;;1.53;1.00;;;16.60;98.20;;;;;;4945648;28;21086;-80
2023/09/03 03:21:22;;;;;;;1.50;0.90;;;16.60;98.20;;;;;;4945314;28;21020;-80
2023/09/03 03:23:50;;;;;;;1.60;1.10;;;16.60;98.20;;;;;;4961176;28;20938;-80
2023/09/03 03:26:18;;;;;;;1.50;1.00;;;16.60;98.20;;;;;;4940464;28;20601;-81
2023/09/03 03:28:47;;;;;;;1.53;1.00;;;16.60;98.20;;;;;;4955972;28;20840;-81
2023/09/03 03:31:14;;;;;;;1.50;1.00;;;16.50;98.20;;;;;;4936231;28;20481;-82
2023/09/03 03:33:42;;;;;;;1.50;1.00;;;16.50;98.20;;;;;;4954589;28;20489;-81
2023/09/03 03:36:13;;;;;;;1.50;1.00;;;16.50;98.20;;;;;;4939421;28;20474;-81
2023/09/03 03:38:40;;;;;;;1.53;1.10;;;16.50;98.20;;;;;;4951809;28;20459;-80
2023/09/03 03:41:11;;;;;;;1.50;0.90;;;16.50;98.20;;;;;;4937314;28;20467;-81
2023/09/03 03:43:38;;;;;;;1.53;0.90;;;16.50;98.20;;;;;;4956104;28;20487;-80
2023/09/03 03:46:07;;;;;;;1.53;1.00;;;16.50;98.20;;;;;;4939001;28;21595;-81
2023/09/03 03:48:34;;;;;;;1.50;1.00;;;16.50;98.20;;;;;;4956504;28;20832;-81
2023/09/03 03:51:01;;;;;;;1.50;1.10;;;16.50;98.20;;;;;;4938499;28;20979;-81
2023/09/03 03:53:28;;;;;;;2.67;1.97;;;16.50;98.20;;;;;;4957051;28;20616;-82
2023/09/03 03:55:59;;;;;;;1.50;1.00;;;16.50;98.20;;;;;;4933680;28;20523;-80
2023/09/03 03:58:26;;;;;;;1.50;1.00;;;16.40;98.20;;;;;;4944120;28;20490;-81
2023/09/03 04:00:53;;;;;;;1.50;1.00;;;16.40;98.20;;;;;;4937173;28;20477;-82
2023/09/03 04:03:22;;;;;;;1.53;0.90;;;16.40;98.20;;;;;;4958133;28;20490;-82
2023/09/03 04:05:57;;;;;;;1.50;1.00;;;16.40;98.20;;;;;;4934729;28;20533;-81
2023/09/03 04:08:23;;;;;;;1.50;1.00;;;16.40;98.20;;;;;;4955200;28;20463;-81
2023/09/03 04:10:57;;;;;;;1.53;1.00;;;16.40;98.20;;;;;;4936717;28;20473;-81
2023/09/03 04:13:24;;;;;;;1.50;1.00;;;16.40;98.20;;;;;;4955633;28;20550;-81
2023/09/03 04:15:51;;;;;;;1.60;1.10;;;16.40;98.20;;;;;;4932161;28;20468;-81
2023/09/03 04:18:18;;;;;;;1.50;1.00;;;16.40;98.20;;;;;;4937944;28;20502;-80
2023/09/03 04:20:46;;;;;;;1.50;1.00;;;16.40;98.20;;;;;;4945196;28;20464;-81
2023/09/03 04:23:13;;;;;;;1.50;0.93;;;16.40;98.20;;;;;;4933401;28;20489;-81
2023/09/03 04:25:39;;;;;;;1.50;1.00;;;16.30;98.20;;;;;;4945679;28;20474;-82
2023/09/03 04:28:07;;;;;;;1.60;1.00;;;16.30;98.20;;;;;;4954007;28;20482;-82
2023/09/03 04:30:35;;;;;;;1.57;1.10;;;16.30;98.20;;;;;;4947396;28;20694;-81
2023/09/03 04:33:02;;;;;;;1.50;0.90;;;16.30;98.20;;;;;;4950714;28;20565;-81
2023/09/03 04:35:29;;;;;;;1.57;1.00;;;16.30;98.20;;;;;;4944957;28;20477;-81
2023/09/03 04:37:57;;;;;;;1.50;0.97;;;16.30;98.20;;;;;;4947637;28;20988;-80
2023/09/03 04:40:25;;;;;;;1.53;1.00;;;16.30;98.20;;;;;;4940799;28;20954;-82
2023/09/03 04:42:52;;;;;;;1.53;1.00;;;16.30;98.20;;;;;;4945926;28;20496;-82
2023/09/03 04:45:19;;;;;;;1.53;1.00;;;16.30;98.20;;;;;;4944897;28;20498;-82
2023/09/03 04:47:45;;;;;;;1.57;1.00;;;16.20;98.20;;;;;;4937547;28;20474;-81
2023/09/03 04:50:12;;;;;;;1.57;1.00;;;16.20;98.20;;;;;;4949323;28;20467;-83
2023/09/03 04:52:43;;;;;;;1.70;1.10;;;16.20;98.20;;;;;;4951756;28;20551;-83
2023/09/03 04:55:11;;;;;;;1.50;0.97;;;16.20;98.20;;;;;;4948363;28;20751;-83
2023/09/03 04:57:38;;;;;;;1.50;1.00;;;16.20;98.20;;;;;;4953309;28;20482;-82
2023/09/03 05:00:07;;;;;;;1.50;0.90;;;16.10;98.20;;;;;;4949195;28;20475;-82
2023/09/03 05:02:34;;;;;;;1.53;1.00;;;16.10;98.20;;;;;;4947082;28;20803;-82
2023/09/03 05:05:01;;;;;;;1.50;1.00;;;16.10;98.20;;;;;;4951117;28;20487;-83
2023/09/03 05:07:27;;;;;;;1.57;1.00;;;16.10;98.20;;;;;;4951472;28;21059;-82
2023/09/03 05:09:54;;;;;;;1.53;1.00;;;16.10;98.20;;;;;;4954081;28;20823;-82
2023/09/03 05:12:23;;;;;;;1.50;1.00;;;16.10;98.20;;;;;;4943942;28;21028;-82
2023/09/03 05:14:50;;;;;;;1.53;1.00;;;16.10;98.20;;;;;;4952351;28;20483;-83
2023/09/03 05:17:17;;;;;;;1.57;1.07;;;16.10;98.20;;;;;;4935595;28;20557;-82
2023/09/03 05:19:44;;;;;;;1.53;0.90;;;16.10;98.20;;;;;;4949636;28;20882;-82
2023/09/03 05:22:10;;;;;;;1.57;1.00;;;16.10;98.20;;;;;;4952358;28;20473;-82
2023/09/03 05:24:37;;;;;;;1.50;0.90;;;16.10;98.20;;;;;;4950768;28;20487;-83
2023/09/03 05:27:05;;;;;;;1.93;1.53;;;16.10;98.20;;;;;;4947745;28;20484;-83
2023/09/03 05:29:33;;;;;;;1.53;1.00;;;16.10;98.20;;;;;;4955873;28;20466;-83
2023/09/03 05:31:59;;;;;;;1.60;1.10;;;16.10;98.20;;;;;;4948442;28;20561;-83
2023/09/03 05:34:26;;;;;;;1.57;1.00;;;16.20;98.20;;;;;;4959194;28;20485;-84
2023/09/03 05:36:53;;;;;;;1.50;1.10;;;16.20;98.20;;;;;;4939029;28;20520;-84
2023/09/03 05:39:20;;;;;;;1.50;0.90;;;16.30;98.20;;;;;;4937943;28;20481;-82
2023/09/03 05:41:47;;;;;;;1.50;1.10;;;16.30;98.20;;;;;;4932498;28;20565;-83
2023/09/03 05:44:15;;;;;;;1.50;1.00;;;16.30;98.20;;;;;;4944224;28;20549;-82
2023/09/03 05:46:44;;;;;;;1.53;1.07;;;16.40;98.20;;;;;;4935468;28;20544;-83
2023/09/03 05:49:11;;;;;;;1.57;1.10;;;16.40;98.20;;;;;;4947738;28;20878;-81
2023/09/03 05:51:37;;;;;;;1.57;1.00;;;16.50;98.20;;;;;;4936612;28;20478;-82
2023/09/03 05:54:04;;;;;;;1.53;1.00;;;16.50;98.20;;;;;;4943263;28;20492;-82
2023/09/03 05:56:31;;;;;;;1.50;1.00;;;16.60;98.20;;;;;;4933218;28;20485;-83
2023/09/03 05:59:03;;;;;;;1.60;1.13;;;16.60;98.20;;;;;;4946333;28;20497;-82
2023/09/03 06:01:30;;;;;;;1.50;0.90;;;16.70;98.20;;;;;;4932015;28;20505;-82
2023/09/03 06:04:02;;;;;;;1.57;1.00;;;16.70;98.20;;;;;;4949992;28;20565;-82
2023/09/03 06:06:29;;;;;;;1.50;1.00;;;16.80;98.20;;;;;;4935004;28;20483;-81
2023/09/03 06:08:56;;;;;;;1.50;0.90;;;16.80;98.20;;;;;;4948283;28;20514;-80
2023/09/03 06:11:23;;;;;;;2.07;1.87;;;16.90;98.20;;;;;;4931989;28;20481;-82
2023/09/03 06:13:50;;;;;;;1.57;1.00;;;17.00;98.20;;;;;;4947771;28;20720;-83
2023/09/03 06:16:16;;;;;;;1.60;1.00;;;17.10;98.20;;;;;;4933055;28;20997;-83
2023/09/03 06:18:43;;;;;;;1.57;1.00;;;17.10;98.20;;;;;;4956258;28;20570;-83
2023/09/03 06:21:11;;;;;;;1.70;1.33;;;17.30;98.20;;;;;;4933468;28;20494;-81
2023/09/03 06:23:38;;;;;;;1.53;1.00;;;17.30;98.20;;;;;;4952530;28;20533;-80
2023/09/03 06:26:05;;;;;;;1.57;1.00;;;17.40;98.20;;;;;;4935374;28;20474;-82
2023/09/03 06:28:33;;;;;;;1.50;1.00;;;17.50;98.20;;;;;;4943998;28;20472;-82
2023/09/03 06:31:01;;;;;;;1.57;1.00;;;17.60;98.20;;;;;;4930337;28;20466;-81
2023/09/03 06:33:27;;;;;;;1.60;1.10;;;17.70;98.20;;;;;;4954520;28;20479;-81
2023/09/03 06:35:56;;;;;;;1.50;0.97;;;17.70;98.20;;;;;;4929153;28;20928;-81
2023/09/03 06:38:24;;;;;;;1.60;1.00;;;17.70;98.20;;;;;;4950342;28;20495;-81
2023/09/03 06:40:51;;;;;;;1.57;0.90;;;17.80;98.20;;;;;;4929828;28;20562;-82
2023/09/03 06:43:18;;;;;;;1.53;1.00;;;17.80;98.20;;;;;;4957178;28;20487;-80
2023/09/03 06:45:44;;;;;;;1.50;0.90;;;17.90;98.20;;;;;;4940167;28;20470;-80
2023/09/03 06:48:11;;;;;;;1.60;1.00;;;18.00;98.20;;;;;;4945987;28;20986;-81
2023/09/03 06:50:41;;;;;;;1.60;1.10;;;18.10;98.20;;;;;;4940222;28;20476;-81
2023/09/03 06:53:08;;;;;;;1.57;1.00;;;18.20;98.20;;;;;;4945550;28;20856;-81
2023/09/03 06:55:36;;;;;;;1.57;0.90;;;18.20;98.20;;;;;;4939501;28;20463;-81
2023/09/03 06:58:03;;;;;;;1.53;0.90;;;18.30;98.20;;;;;;4940425;28;20489;-81
2023/09/03 07:00:30;;;;;;;1.60;1.00;;;18.40;98.20;;;;;;4941433;28;20556;-80
2023/09/03 07:02:57;;;;;;;1.60;1.00;;;18.40;98.20;;;;;;4947752;28;20488;-82
2023/09/03 07:05:24;;;;;;;1.50;1.00;;;18.50;98.20;;;;;;4943044;28;21462;-81
2023/09/03 07:07:51;;;;;;;1.53;0.90;;;18.60;98.20;;;;;;4950583;28;20497;-82
2023/09/03 07:10:18;;;;;;;1.70;1.30;;;18.70;98.20;;;;;;4939985;28;20475;-83
2023/09/03 07:12:46;;;;;;;1.53;1.00;;;18.80;98.20;;;;;;4941746;28;20482;-83
2023/09/03 07:15:12;;;;;;;1.53;0.97;;;18.70;98.20;;;;;;4941697;28;20466;-82
2023/09/03 07:17:39;;;;;;;1.60;1.00;;;18.80;98.20;;;;;;4932934;28;20516;-82
2023/09/03 07:20:07;;;;;;;1.50;0.90;;;18.90;98.20;;;;;;4940363;28;20478;-82
2023/09/03 07:22:35;;;;;;;1.53;0.90;;;19.00;98.20;;;;;;4946661;28;20473;-83
2023/09/03 07:25:02;;;;;;;1.57;0.90;;;19.10;98.20;;;;;;4941216;28;20482;-82
2023/09/03 07:27:28;;;;;;;1.53;0.90;;;19.10;98.20;;;;;;4944784;28;20525;-83
2023/09/03 07:29:57;;;;;;;1.50;0.90;;;19.10;98.20;;;;;;4943134;28;20468;-82
2023/09/03 07:32:24;;;;;;;1.53;0.90;;;18.90;98.20;;;;;;4943227;28;20849;-81
2023/09/03 07:34:51;;;;;;;1.50;0.90;;;18.90;98.20;;;;;;4943674;28;20542;-82
2023/09/03 07:37:18;;;;;;;1.50;0.90;;;18.90;98.20;;;;;;4946057;28;20563;-82
2023/09/03 07:39:46;;;;;;;1.50;1.00;;;18.80;98.20;;;;;;4942674;28;20547;-81
2023/09/03 07:42:13;;;;;;;1.50;0.90;;;18.70;98.20;;;;;;4946976;28;20551;-81
2023/09/03 07:44:40;;;;;;;1.50;0.90;;;18.70;98.20;;;;;;4944802;28;20653;-81
2023/09/03 07:47:08;;;;;;;1.93;1.73;;;18.70;98.20;;;;;;4935640;28;20486;-82
2023/09/03 07:49:35;;;;;;;1.50;0.90;;;18.70;98.20;;;;;;4946221;28;20460;-81
2023/09/03 07:52:02;;;;;;;1.50;0.90;;;18.70;98.20;;;;;;4939396;28;20600;-82
2023/09/03 07:54:29;;;;;;;1.50;0.90;;;18.70;98.20;;;;;;4942740;28;20495;-82
2023/09/03 07:56:55;;;;;;;1.50;0.90;;;18.70;98.20;;;;;;4937289;28;20481;-83
2023/09/03 07:59:22;;;;;;;1.50;0.90;;;18.70;98.20;;;;;;4943097;28;20487;-83
2023/09/03 08:01:49;;;;;;;1.50;0.90;;;18.70;98.20;;;;;;4938694;28;21089;-82
2023/09/03 08:04:18;;;;;;;1.50;0.90;;;18.60;98.20;;;;;;4947404;28;20588;-81
2023/09/03 08:06:45;;;;;;;1.50;0.90;;;18.60;98.20;;;;;;4937257;28;20481;-80
2023/09/03 08:09:11;;;;;;;1.57;0.90;;;18.70;98.20;;;;;;4948545;28;20460;-78
2023/09/03 08:11:38;;;;;;;1.50;0.90;;;18.90;98.20;;;;;;4939950;28;20553;-84
2023/09/03 08:14:06;;;;;;;1.53;0.90;;;19.00;98.20;;;;;;4952029;28;20487;-84
2023/09/03 08:16:33;;;;;;;1.70;1.30;;;19.00;98.20;;;;;;4938701;28;20564;-81
2023/09/03 08:19:00;;;;;;;1.53;0.90;;;19.20;98.20;;;;;;4951734;28;20492;-83
2023/09/03 08:21:28;;;;;;;1.57;1.00;;;19.30;98.20;;;;;;4936030;28;20498;-82
2023/09/03 08:23:55;;;;;;;1.50;0.90;;;19.30;98.20;;;;;;4954748;28;20566;-83
2023/09/03 08:26:21;;;;;;;1.53;1.00;;;19.40;98.20;;;;;;4939502;28;20500;-83
2023/09/03 08:28:48;;;;;;;1.53;0.90;;;19.50;98.20;;;;;;4954859;28;20459;-83
2023/09/03 08:31:15;;;;;;;1.53;0.90;;;19.70;98.20;;;;;;4934519;28;20692;-82
2023/09/03 08:33:42;;;;;;;1.70;1.07;;;19.80;98.20;;;;;;4949087;28;20497;-80
2023/09/03 08:36:09;;;;;;;1.60;1.10;;;19.90;98.20;;;;;;4933713;28;20877;-82
2023/09/03 08:38:37;;;;;;;1.50;0.90;;;20.00;98.20;;;;;;4953744;28;20502;-82
2023/09/03 08:41:31;;;;;;;1.53;0.90;;;20.10;98.20;;;;;;4939851;28;20495;-80
2023/09/03 08:44:03;;;;;;;1.70;1.43;;;20.20;98.20;;;;;;4953537;28;20537;-82
2023/09/03 08:46:32;;;;;;;1.50;0.90;;;20.30;98.20;;;;;;4937173;28;20528;-81
2023/09/03 08:49:00;;;;;;;5.87;4.13;;;20.50;98.20;;;;;;4950406;28;20782;-84
2023/09/03 08:51:28;;;;;;;1.60;1.00;;;20.70;98.20;;;;;;4936401;28;20548;-83
2023/09/03 08:53:59;;;;;;;1.50;0.90;;;20.90;98.20;;;;;;4952288;28;20494;-82
2023/09/03 08:56:26;;;;;;;1.60;1.23;;;21.10;98.20;;;;;;4949870;28;20572;-82
2023/09/03 08:58:53;;;;;;;1.53;0.90;;;21.30;98.20;;;;;;4965407;28;20502;-84
2023/09/03 09:01:21;;;;;;;1.50;0.90;;;21.50;98.20;;;;;;4943450;28;20733;-83
2023/09/03 09:03:51;;;;;;;1.50;0.90;;;21.50;98.20;;;;;;4951402;28;20515;-83
2023/09/03 09:06:21;;;;;;;1.53;0.90;;;21.60;98.20;;;;;;4951773;28;20531;-84
2023/09/03 09:12:22;;;;;;;1.57;0.90;;;21.90;98.20;;;;;;4941013;28;20474;-81
2023/09/03 09:14:54;;;;;;;1.50;0.90;;;22.10;98.20;;;;;;4952804;28;20931;-81
2023/09/03 09:17:21;;;;;;;1.53;0.90;;;22.20;98.20;;;;;;4955729;28;20480;-79
2023/09/03 09:19:48;;;;;;;1.53;0.90;;;22.40;98.20;;;;;;4959638;28;20490;-80
2023/09/03 09:22:18;;;;;;;1.50;0.90;;;22.50;98.20;;;;;;4956658;28;20497;-81
2023/09/03 09:24:46;;;;;;;1.57;0.90;;;22.60;98.20;;;;;;4964933;28;20555;-81
2023/09/03 09:27:18;;;;;;;1.50;0.90;;;22.80;98.20;;;;;;4959906;28;20481;-80
2023/09/03 09:29:46;;;;;;;1.50;0.90;;;23.00;98.20;;;;;;4958923;28;20471;-81
2023/09/03 09:32:20;;;;;;;1.50;0.90;;;23.20;98.20;;;;;;4947108;28;20479;-83
2023/09/03 09:34:48;;;;;;;28.37;2.80;;;23.30;98.20;;;;;;4953970;28;20479;-83
2023/09/03 09:37:17;;;;;;;1.50;0.90;;;23.40;98.20;;;;;;4949431;28;20486;-83
2023/09/03 09:39:53;;;;;;;1.57;0.90;;;23.60;98.20;;;;;;4948650;28;20522;-81
2023/09/03 09:42:22;;;;;;;1.50;0.90;;;23.80;98.20;;;;;;4938853;28;20518;-82
2023/09/03 09:44:58;;;;;;;1.50;0.90;;;23.90;98.20;;;;;;4952694;28;20476;-82
2023/09/03 09:47:26;;;;;;;1.50;0.90;;;24.10;98.20;;;;;;4950123;28;21055;-82
2023/09/03 09:49:54;;;;;;;1.53;0.90;;;24.30;98.20;;;;;;4955323;28;20736;-82
2023/09/03 09:52:21;;;;;;;1.50;0.90;;;24.50;98.20;;;;;;4934943;28;20534;-83
2023/09/03 09:54:49;;;;;;;1.50;0.90;;;24.70;98.20;;;;;;4944572;28;20503;-82
2023/09/03 09:57:18;;;;;;;1.57;0.90;;;24.80;98.20;;;;;;4939754;28;20486;-82
2023/09/03 09:59:53;;;;;;;1.50;0.80;;;24.80;98.20;;;;;;4944376;28;21170;-83
2023/09/03 10:02:21;;;;;;;1.60;1.13;;;24.90;98.20;;;;;;4946704;28;21019;-83
2023/09/03 10:04:50;;;;;;;1.70;1.30;;;25.00;98.20;;;;;;4942791;28;20494;-82
2023/09/03 10:07:17;;;;;;;1.60;1.10;;;25.20;98.20;;;;;;4937991;28;21126;-83
2023/09/03 10:09:45;;;;;;;1.50;0.90;;;25.40;98.20;;;;;;4944528;28;20469;-83
2023/09/03 10:12:13;;;;;;;1.50;0.80;;;25.40;98.20;;;;;;4934135;28;20519;-82
2023/09/03 10:14:40;;;;;;;1.57;0.83;;;25.60;95.10;;;;;;4944340;28;20900;-82
2023/09/03 10:17:10;;;;;;;1.50;0.80;;;25.70;98.20;;;;;;4945520;28;20561;-83
2023/09/03 10:19:47;;;;;;;1.50;0.80;;;25.70;94.20;;;;;;4945011;28;21109;-81
2023/09/03 10:22:16;;;;;;;1.60;1.20;;;25.70;96.00;;;;;;4936409;28;20503;-82
2023/09/03 10:24:47;;;;;;;1.50;0.90;;;25.80;97.40;;;;;;4945753;28;20491;-82
2023/09/03 10:27:19;;;;;;;1.50;0.80;;;25.90;95.30;;;;;;4940555;28;20504;-82
2023/09/03 10:29:49;;;;;;;1.57;0.80;;;25.80;91.60;;;;;;4939174;28;20510;-82
2023/09/03 10:32:18;;;;;;;1.50;0.80;;;25.80;92.60;;;;;;4939538;28;20554;-81
2023/09/03 10:34:45;;;;;;;1.50;0.80;;;25.80;94.80;;;;;;4943171;28;20501;-82
2023/09/03 10:37:13;;;;;;;1.50;0.90;;;25.80;92.10;;;;;;4941987;28;20513;-82
2023/09/03 10:39:42;;;;;;;1.50;0.90;;;25.80;93.80;;;;;;4947395;28;20499;-81
2023/09/03 10:42:29;;;;;;;1.50;0.80;;;26.00;92.80;;;;;;4940582;28;20497;-82
2023/09/03 10:45:02;;;;;;;1.50;0.80;;;26.10;95.40;;;;;;4945232;28;20487;-81
2023/09/03 10:47:31;;;;;;;1.50;0.87;;;26.20;91.90;;;;;;4946846;28;20486;-81
2023/09/03 10:49:58;;;;;;;1.50;0.80;;;26.20;90.80;;;;;;4946092;28;20923;-82
2023/09/03 10:52:40;;;;;;;1.50;0.80;;;26.20;92.60;;;;;;4933261;28;20479;-83
2023/09/03 10:55:19;;;;;;;1.50;1.00;;;26.30;90.60;;;;;;4948125;28;20993;-81
2023/09/03 10:57:47;;;;;;;1.50;0.80;;;26.30;94.10;;;;;;4956322;28;20486;-82
2023/09/03 11:00:17;;;;;;;1.50;0.90;;;26.50;92.50;;;;;;4948149;28;20496;-81
2023/09/03 11:02:49;;;;;;;1.50;0.80;;;26.60;94.80;;;;;;4943671;28;20691;-79
2023/09/03 11:05:20;;;;;;;1.50;0.80;;;26.70;94.30;;;;;;4948930;28;20467;-80
2023/09/03 11:07:48;;;;;;;1.50;0.80;;;26.90;93.30;;;;;;4958698;28;20793;-82
2023/09/03 11:10:41;;;;;;;1.50;0.80;;;26.80;91.70;;;;;;4957196;28;20459;-82
2023/09/03 11:13:12;;;;;;;1.50;0.80;;;26.80;91.00;;;;;;4941707;28;20578;-81
2023/09/03 11:15:48;;;;;;;1.50;0.80;;;26.90;93.20;;;;;;4942181;28;20503;-81
2023/09/03 11:18:21;;;;;;;1.47;0.80;;;27.10;91.10;;;;;;4934002;28;21028;-82
2023/09/03 11:21:05;;;;;;;1.50;0.90;;;27.10;87.90;;;;;;4944897;28;21292;-83
2023/09/03 11:23:33;;;;;;;1.50;0.90;;;27.30;89.20;;;;;;4953997;28;20939;-81
2023/09/03 11:26:02;;;;;;;1.50;0.80;;;27.40;90.20;;;;;;4942424;28;20538;-80
2023/09/03 11:28:36;;;;;;;1.50;0.80;;;27.60;87.60;;;;;;4962710;28;20475;-80
2023/09/03 11:31:03;;;;;;;1.50;0.80;;;27.60;88.80;;;;;;4933474;28;20459;-83
2023/09/03 11:33:32;;;;;;;1.50;0.80;;;27.70;88.40;;;;;;4956998;28;20924;-81
2023/09/03 11:36:00;;;;;;;1.50;0.80;;;27.90;87.40;;;;;;4937001;28;20462;-82
2023/09/03 11:38:29;;;;;;;1.50;0.80;;;28.00;85.20;;;;;;4954002;28;20471;-82
2023/09/03 11:40:57;;;;;;;1.50;0.80;;;28.00;81.10;;;;;;4940529;28;20490;-81
2023/09/03 11:43:24;;;;;;;1.47;0.80;;;27.90;81.60;;;;;;4957500;28;20637;-80
2023/09/03 11:45:52;;;;;;;1.50;0.80;;;27.90;83.80;;;;;;4934837;28;21085;-81
2023/09/03 11:48:24;;;;;;;1.50;0.80;;;27.80;85.00;;;;;;4956598;28;20578;-83
2023/09/03 11:50:53;;;;;;;1.47;0.80;;;27.80;87.80;;;;;;4933896;28;20567;-80
2023/09/03 11:53:20;;;;;;;1.43;0.80;;;27.80;85.90;;;;;;4955511;28;21013;-82
2023/09/03 11:55:50;;;;;;;1.50;0.80;;;27.90;85.30;;;;;;4936139;28;20467;-82
2023/09/03 11:58:43;;;;;;;1.50;0.80;;;27.90;85.20;;;;;;4958668;28;20504;-81
2023/09/03 12:01:12;;;;;;;1.47;0.80;;;27.90;87.10;;;;;;4936463;28;20492;-81
2023/09/03 12:03:39;;;;;;;1.47;0.80;;;27.90;89.30;;;;;;4956243;28;20475;-82
2023/09/03 12:06:08;;;;;;;1.50;0.80;;;27.90;87.70;;;;;;4938281;28;20534;-82
2023/09/03 12:08:35;;;;;;;1.50;0.90;;;28.00;88.40;;;;;;4952813;28;20474;-81
2023/09/03 12:11:02;;;;;;;1.50;0.90;;;28.20;89.80;;;;;;4937421;28;20547;-81
2023/09/03 12:13:30;;;;;;;1.50;0.90;;;28.20;87.60;;;;;;4947741;28;20486;-81
2023/09/03 12:16:07;;;;;;;1.60;1.00;;;28.00;85.50;;;;;;4932416;28;20464;-82
2023/09/03 12:18:34;;;;;;;1.50;0.80;;;27.90;88.30;;;;;;4952614;28;20569;-83
2023/09/03 12:21:02;;;;;;;1.43;0.80;;;28.00;88.10;;;;;;4930666;28;20921;-82
2023/09/03 12:23:31;;;;;;;1.50;0.90;;;28.00;86.10;;;;;;4944294;28;20482;-82
2023/09/03 12:25:58;;;;;;;1.47;0.80;;;28.00;86.60;;;;;;4938053;28;20502;-82
2023/09/03 12:28:36;;;;;;;1.47;0.80;;;28.00;88.30;;;;;;4957747;28;20463;-80
2023/09/03 12:31:05;;;;;;;1.43;0.80;;;28.10;86.30;;;;;;4938024;28;20490;-82
2023/09/03 12:33:47;;;;;;;1.50;0.90;;;28.10;87.30;;;;;;4944034;28;20510;-80
2023/09/03 12:36:15;;;;;;;1.47;0.80;;;28.10;85.10;;;;;;4933881;28;20502;-82
2023/09/03 12:39:06;;;;;;;1.40;0.80;;;28.00;86.40;;;;;;4948050;28;20466;-82
2023/09/03 12:41:34;;;;;;;1.43;0.80;;;28.00;82.30;;;;;;4934154;28;20554;-80
2023/09/03 12:44:06;;;;;;;1.40;0.80;;;27.70;82.80;;;;;;4942455;28;20478;-81
2023/09/03 12:46:34;;;;;;;1.47;0.80;;;27.60;86.20;;;;;;4931767;28;20570;-81
2023/09/03 12:49:01;;;;;;;1.47;0.80;;;27.60;86.10;;;;;;4936089;28;20471;-80
2023/09/03 12:51:28;;;;;;;1.40;0.80;;;27.60;85.70;;;;;;4931830;28;21055;-81
2023/09/03 12:53:57;;;;;;;1.43;0.80;;;27.60;87.50;;;;;;4943410;28;20548;-81
2023/09/03 12:56:24;;;;;;;1.43;0.80;;;27.60;87.80;;;;;;4930156;28;20977;-82
2023/09/03 12:58:51;;;;;;;1.50;0.80;;;27.70;87.50;;;;;;4949577;28;20565;-80